Αρχική σελίδα
METAR-TAF:

METAR-TAF

Αεροδρόμια :

Bagé, Ρίο Γκράντε ντο Σουλ, Βραζιλία

γεωγραφικό πλάτος: 31-21S, γεωγραφικό μήκος: 054-07W, υψόμετρο: 180 μ

Παρών καιρός

Η αναφορά έγινε 9 λεπτά πριν, στις 18:00 UTC
Άνεμος 11 kt από ΝA
Θερμοκρασία 19°C
Υγρασία 88%
Πίεση 1016 hPa
Ορατότητα 10 χλμ και άνω
Λίγα νέφη σε ύψος 1000 πόδια
Νεφοσκεπής σε ύψος 2300 πόδια

METAR: SBBG 151800Z AUTO 14011KT 9999 FEW010 OVC023 19/17 Q1016

Χρόνος: 15:09 (18:09 UTC)

Πρόγνωση Καιρού

Η αναφορά έγινε 3 ώρες και 9 λεπτά πριν, στις 15:00 UTC
Η πρόγνωση ισχύει από τις 15 στις 18 UTC έως τις 16 στις 06 UTC
Άνεμος 10 kt από Ν/NA
Ορατότητα 10 χλμ και άνω
Αρκετά νέφη σε ύψος 800 πόδια
Νεφοσκεπής σε ύψος 1000 πόδια
Καθιστάμενος
από 15 στις 18 UTC έως τις 15 στις 20 UTC
Ορατότητα: 6000 μ
Αρκετά νέφη σε ύψος 2000 πόδια

TAF: SBBG 151500Z 1518/1606 15010KT 9999 BKN008 OVC010 TX21/1518Z TN14/1605Z BECMG 1518/1520 6000 BKN020 RMK PBH

Μετεωρολογικές αναφορές και προγνώσεις για περισσότερα από 4000 αεροδρόμια (δελτία METAR και TAF).

Οι διαθέσιμοι σταθμοί απεικονίζονται στο χάρτη με κίτρινες και κόκκινες κουκκίδες.

Μετακινήστε το ποντίκι πάνω από τις κουκκίδες για να δείτε το όνομα του σταθμού.

Στη συνέχεια, κάντε κλικ για να δείτε τις μετεωρολογικές αναφορές και τις προγνώσεις καιρού.

Για να αλλάξετε το χάρτη: κάντε κλικ στα πράσινα κουμπιά με τον μαύρο σταυρό για να ζουμάρετε, στο πράσινο κουμπί με την παύλα για να αφαιρέσετε το ζουμ ή στα πράσινα βέλη για να αντιπαραβάλλετε χάρτες.


METAR-TAF: